Time;durP1;ratioP1;P1;durP2;ratioP2;P2;SDS_P1;SDS_P2;PMS_P1;PMS_P2;Temp;Humidity;BMP_temperature;BMP_pressure;BME280_temperature;BME280_humidity;BME280_pressure;Samples;Min_cycle;Max_cycle;Signal;HPM_P1;HPM_P2
2021/10/11 00:01:16;;;;;;;86.60;43.87;;;;;;;0.23;74.80;95340.91;1622453;87;21615;-61
2021/10/11 00:03:43;;;;;;;87.17;42.80;;;;;;;0.28;74.67;95346.79;1621298;87;21455;-63
2021/10/11 00:06:10;;;;;;;85.85;40.88;;;;;;;0.28;74.60;95348.14;1613350;87;21070;-61
2021/10/11 00:08:37;;;;;;;86.97;40.73;;;;;;;0.24;74.87;95340.53;1621678;87;21997;-62
2021/10/11 00:11:05;;;;;;;75.15;36.45;;;;;;;0.26;75.23;95345.00;1622362;87;21057;-61
2021/10/11 00:13:33;;;;;;;78.12;38.80;;;;;;;0.26;74.64;95331.47;1618525;87;21146;-60
2021/10/11 00:16:00;;;;;;;71.60;38.60;;;;;;;0.22;74.45;95323.89;1620038;87;21022;-62
2021/10/11 00:18:29;;;;;;;99.58;43.50;;;;;;;0.22;74.51;95318.48;1615953;86;21043;-61
2021/10/11 00:20:56;;;;;;;82.45;38.17;;;;;;;0.25;74.57;95318.33;1644619;86;21068;-62
2021/10/11 00:23:23;;;;;;;78.92;38.73;;;;;;;0.25;74.65;95316.38;1644494;85;21055;-64
2021/10/11 00:25:51;;;;;;;65.92;33.85;;;;;;;0.22;74.75;95318.48;1655071;85;21070;-62
2021/10/11 00:28:18;;;;;;;66.85;34.48;;;;;;;0.19;74.63;95316.51;1652537;85;21126;-60
2021/10/11 00:30:44;;;;;;;71.45;34.15;;;;;;;0.07;74.64;95304.56;1644941;85;20983;-61
2021/10/11 00:33:11;;;;;;;111.32;44.15;;;;;;;-0.03;74.77;95316.59;1644386;85;21133;-62
2021/10/11 00:35:38;;;;;;;110.70;43.25;;;;;;;-0.15;74.98;95309.28;1644539;87;20964;-62
2021/10/11 00:38:05;;;;;;;101.02;39.92;;;;;;;-0.20;75.20;95310.95;1644840;87;21059;-61
2021/10/11 00:40:31;;;;;;;94.30;38.95;;;;;;;-0.24;75.38;95308.78;1644648;87;21066;-62
2021/10/11 00:42:58;;;;;;;97.85;40.52;;;;;;;-0.26;75.52;95316.47;1644787;85;21455;-61
2021/10/11 00:45:25;;;;;;;92.20;38.63;;;;;;;-0.30;75.74;95305.60;1644408;87;21131;-62
2021/10/11 00:47:53;;;;;;;92.12;36.80;;;;;;;-0.32;76.04;95294.38;1644596;87;21015;-61
2021/10/11 00:50:20;;;;;;;84.87;38.67;;;;;;;-0.26;76.19;95292.14;1644582;85;21083;-62
2021/10/11 00:52:47;;;;;;;73.37;35.03;;;;;;;-0.24;76.30;95291.20;1644478;87;21093;-63
2021/10/11 00:55:14;;;;;;;87.30;37.78;;;;;;;-0.21;76.27;95296.64;1644767;85;21087;-61
2021/10/11 00:57:41;;;;;;;97.20;41.60;;;;;;;-0.25;76.14;95289.65;1653155;85;21113;-62
2021/10/11 01:00:09;;;;;;;100.92;41.18;;;;;;;-0.28;76.31;95289.00;1644802;87;20972;-61
2021/10/11 01:02:35;;;;;;;89.20;40.23;;;;;;;-0.25;76.38;95288.30;1623822;86;21039;-61
2021/10/11 01:05:03;;;;;;;73.52;36.98;;;;;;;-0.19;76.35;95292.23;1646762;86;21023;-61
2021/10/11 01:07:30;;;;;;;82.25;40.30;;;;;;;-0.17;76.15;95283.97;1644507;85;21027;-61
2021/10/11 01:09:57;;;;;;;83.05;40.25;;;;;;;-0.15;76.20;95274.13;1653199;86;21134;-61
2021/10/11 01:12:24;;;;;;;93.72;42.13;;;;;;;-0.07;76.25;95267.69;1655503;85;20983;-60
2021/10/11 01:14:51;;;;;;;86.40;38.20;;;;;;;-0.01;75.89;95271.83;1646016;86;21082;-61
2021/10/11 01:17:18;;;;;;;89.77;42.23;;;;;;;0.04;75.56;95268.79;1644707;87;20987;-61
2021/10/11 01:19:50;;;;;;;80.50;38.67;;;;;;;0.06;75.61;95269.20;1644536;87;20996;-61
2021/10/11 01:22:17;;;;;;;68.90;36.20;;;;;;;0.12;75.56;95265.05;1644661;87;21159;-61
2021/10/11 01:24:46;;;;;;;73.28;36.23;;;;;;;0.18;75.17;95266.27;1644290;85;20991;-61
2021/10/11 01:27:15;;;;;;;75.62;34.48;;;;;;;0.21;74.82;95258.77;1644482;87;21459;-61
2021/10/11 01:29:42;;;;;;;77.53;36.03;;;;;;;0.24;74.45;95253.95;1644611;85;21082;-61
2021/10/11 01:32:08;;;;;;;72.60;33.45;;;;;;;0.28;74.35;95248.04;1644513;85;20995;-65
2021/10/11 01:34:36;;;;;;;69.30;31.55;;;;;;;0.33;74.39;95249.61;1644593;85;21955;-61
2021/10/11 01:37:02;;;;;;;85.17;36.48;;;;;;;0.28;74.15;95246.69;1644543;87;21058;-60
2021/10/11 01:39:29;;;;;;;74.42;36.05;;;;;;;0.08;73.95;95242.56;1645063;87;21530;-60
2021/10/11 01:41:56;;;;;;;80.20;38.17;;;;;;;-0.08;74.21;95237.16;1654705;85;21035;-61
2021/10/11 01:44:23;;;;;;;83.05;37.25;;;;;;;-0.15;74.58;95238.98;1644392;87;21091;-61
2021/10/11 01:46:50;;;;;;;72.42;36.65;;;;;;;-0.13;74.73;95240.75;1644586;87;21141;-62
2021/10/11 01:49:17;;;;;;;66.62;33.92;;;;;;;-0.09;74.71;95241.00;1644320;85;21519;-62
2021/10/11 01:51:43;;;;;;;68.02;33.60;;;;;;;0.00;74.74;95242.88;1644741;87;21098;-61
2021/10/11 01:54:10;;;;;;;66.80;32.93;;;;;;;0.05;74.50;95230.37;1641315;86;21066;-61
2021/10/11 01:56:36;;;;;;;64.32;31.90;;;;;;;0.08;74.37;95228.27;1644946;87;21020;-61
2021/10/11 01:59:03;;;;;;;72.82;34.18;;;;;;;0.18;74.41;95220.28;1644752;87;21140;-61
2021/10/11 02:01:30;;;;;;;63.42;33.95;;;;;;;0.30;74.24;95223.30;1644581;85;21079;-61
2021/10/11 02:03:57;;;;;;;75.32;37.33;;;;;;;0.34;74.04;95227.61;1644298;87;21024;-61
2021/10/11 02:06:24;;;;;;;72.60;34.27;;;;;;;0.32;74.09;95225.06;1644702;86;21500;-61
2021/10/11 02:08:50;;;;;;;69.77;35.35;;;;;;;0.32;73.89;95217.73;1644531;85;21161;-62
2021/10/11 02:11:17;;;;;;;71.47;33.78;;;;;;;0.29;73.49;95224.45;1644668;87;21139;-61
2021/10/11 02:13:44;;;;;;;69.37;32.08;;;;;;;0.14;73.21;95224.09;1644510;86;21342;-61
2021/10/11 02:16:11;;;;;;;73.47;35.65;;;;;;;-0.02;73.31;95224.09;1644488;85;21082;-62
2021/10/11 02:18:39;;;;;;;80.77;36.17;;;;;;;-0.19;73.48;95217.30;1643443;86;21554;-61
2021/10/11 02:21:05;;;;;;;73.02;35.58;;;;;;;-0.26;73.84;95219.93;1643148;86;21007;-60
2021/10/11 02:23:32;;;;;;;71.28;34.70;;;;;;;-0.22;74.17;95211.88;1641491;87;21902;-61
2021/10/11 02:25:58;;;;;;;69.90;33.85;;;;;;;-0.14;74.27;95208.09;1635137;86;20999;-62
2021/10/11 02:28:26;;;;;;;63.80;32.45;;;;;;;-0.02;74.26;95207.87;1632220;86;21427;-61
2021/10/11 02:30:53;;;;;;;65.80;33.48;;;;;;;-0.01;74.03;95202.87;1646031;85;20999;-62
2021/10/11 02:33:21;;;;;;;60.60;29.95;;;;;;;-0.03;74.21;95210.37;1634300;86;21027;-61
2021/10/11 02:35:47;;;;;;;65.60;32.33;;;;;;;-0.09;74.08;95210.47;1637158;87;21115;-61
2021/10/11 02:38:14;;;;;;;67.65;33.45;;;;;;;-0.24;73.97;95207.41;1644243;87;21035;-59
2021/10/11 02:40:40;;;;;;;57.85;27.62;;;;;;;-0.32;74.22;95216.56;1639191;87;21571;-60
2021/10/11 02:43:07;;;;;;;65.67;29.02;;;;;;;-0.34;74.30;95207.48;1635133;86;21460;-61
2021/10/11 02:45:34;;;;;;;65.57;32.88;;;;;;;-0.36;74.26;95203.02;1632880;86;21054;-61
2021/10/11 02:48:05;;;;;;;50.25;26.10;;;;;;;-0.38;74.28;95201.23;1641806;86;22308;-61
2021/10/11 02:50:32;;;;;;;62.70;30.45;;;;;;;-0.36;74.36;95197.61;1642333;86;21122;-61
2021/10/11 02:52:59;;;;;;;61.48;27.10;;;;;;;-0.34;74.45;95198.58;1635349;87;21655;-61
2021/10/11 02:55:26;;;;;;;58.48;29.07;;;;;;;-0.31;74.47;95199.19;1634458;86;20984;-64
2021/10/11 02:57:52;;;;;;;50.23;27.48;;;;;;;-0.28;74.54;95197.89;1639822;86;21023;-60
2021/10/11 03:00:19;;;;;;;50.10;28.83;;;;;;;-0.24;74.39;95200.06;1633768;87;21173;-60
2021/10/11 03:02:46;;;;;;;53.15;28.40;;;;;;;-0.19;74.23;95188.16;1638041;85;21021;-61
2021/10/11 03:05:13;;;;;;;51.05;28.42;;;;;;;-0.13;74.00;95190.17;1635491;86;21019;-61
2021/10/11 03:07:40;;;;;;;52.15;27.73;;;;;;;-0.07;73.92;95185.22;1638010;87;21813;-62
2021/10/11 03:10:08;;;;;;;52.08;27.45;;;;;;;0.02;73.75;95175.67;1643556;86;20995;-61
2021/10/11 03:12:35;;;;;;;53.48;26.23;;;;;;;0.11;73.54;95174.23;1635685;86;21764;-60
2021/10/11 03:15:05;;;;;;;52.20;27.90;;;;;;;0.19;73.19;95170.44;1636310;86;21509;-60
2021/10/11 03:17:33;;;;;;;51.08;29.00;;;;;;;0.21;73.00;95162.73;1626743;87;21495;-61
2021/10/11 03:20:00;;;;;;;51.77;26.85;;;;;;;0.23;73.16;95156.38;1640851;87;21519;-61
2021/10/11 03:22:27;;;;;;;64.77;32.10;;;;;;;0.16;72.67;95157.66;1649673;86;21006;-61
2021/10/11 03:24:55;;;;;;;67.35;32.95;;;;;;;0.07;72.70;95154.46;1650427;86;21119;-61
2021/10/11 03:27:23;;;;;;;59.38;31.07;;;;;;;0.04;72.66;95155.20;1645856;85;21109;-61
2021/10/11 03:29:50;;;;;;;60.30;32.45;;;;;;;0.00;72.42;95158.45;1646940;85;21599;-61
2021/10/11 03:32:17;;;;;;;60.63;29.70;;;;;;;-0.02;72.52;95159.20;1647596;86;21458;-61
2021/10/11 03:34:44;;;;;;;62.43;30.92;;;;;;;-0.01;72.75;95153.41;1645058;86;21014;-60
2021/10/11 03:37:11;;;;;;;56.85;28.05;;;;;;;0.05;72.46;95150.59;1649114;87;21164;-60
2021/10/11 03:39:38;;;;;;;50.00;26.97;;;;;;;0.07;72.37;95147.70;1652447;86;20994;-60
2021/10/11 03:42:05;;;;;;;51.02;25.37;;;;;;;0.09;72.23;95141.94;1645858;86;21058;-60
2021/10/11 03:44:32;;;;;;;49.77;26.87;;;;;;;0.12;72.19;95141.98;1645788;87;21062;-64
2021/10/11 03:46:59;;;;;;;50.63;28.00;;;;;;;0.10;72.18;95140.22;1646779;85;21113;-60
2021/10/11 03:49:27;;;;;;;48.98;28.80;;;;;;;0.09;72.20;95131.91;1648074;85;21828;-60
2021/10/11 03:51:53;;;;;;;52.17;27.95;;;;;;;0.06;72.38;95127.22;1646650;86;21006;-61
2021/10/11 03:54:20;;;;;;;45.23;25.27;;;;;;;0.07;72.49;95128.77;1649123;86;21057;-62
2021/10/11 03:56:49;;;;;;;49.10;25.92;;;;;;;-0.01;72.27;95131.21;1646585;86;21011;-61
2021/10/11 03:59:15;;;;;;;59.98;28.52;;;;;;;-0.15;72.17;95133.55;1646004;86;20966;-61
2021/10/11 04:01:42;;;;;;;55.00;27.00;;;;;;;-0.27;72.45;95127.03;1650878;85;21138;-62
2021/10/11 04:04:09;;;;;;;49.03;25.55;;;;;;;-0.34;72.64;95128.31;1647764;87;21625;-62
2021/10/11 04:06:37;;;;;;;50.83;27.20;;;;;;;-0.36;72.94;95120.59;1650753;85;21006;-62
2021/10/11 04:09:04;;;;;;;54.05;24.85;;;;;;;-0.34;73.08;95120.20;1644821;85;21132;-62
2021/10/11 04:11:32;;;;;;;50.12;24.47;;;;;;;-0.27;73.10;95112.96;1646179;86;21514;-62
2021/10/11 04:13:59;;;;;;;41.13;24.55;;;;;;;-0.22;73.02;95114.56;1648199;87;21180;-61
2021/10/11 04:16:26;;;;;;;46.48;27.00;;;;;;;-0.18;73.08;95118.87;1651079;85;21446;-63
2021/10/11 04:18:53;;;;;;;50.38;27.77;;;;;;;-0.11;73.11;95116.23;1643923;85;21027;-62
2021/10/11 04:21:19;;;;;;;49.85;25.65;;;;;;;-0.07;73.30;95114.92;1648571;85;21582;-60
2021/10/11 04:23:46;;;;;;;50.83;27.70;;;;;;;-0.02;73.23;95110.53;1642991;86;21104;-61
2021/10/11 04:26:13;;;;;;;59.65;26.97;;;;;;;-0.03;73.06;95103.56;1617706;87;21162;-61
2021/10/11 04:28:40;;;;;;;48.92;25.88;;;;;;;-0.06;72.95;95098.31;1632406;87;21535;-60
2021/10/11 04:31:08;;;;;;;49.33;26.30;;;;;;;-0.10;73.03;95107.53;1650091;85;21015;-61
2021/10/11 04:33:35;;;;;;;51.45;27.40;;;;;;;-0.16;72.95;95097.64;1626314;87;20993;-61
2021/10/11 04:36:03;;;;;;;51.08;26.70;;;;;;;-0.21;72.64;95095.25;1621932;87;21540;-61
2021/10/11 04:38:31;;;;;;;55.80;28.55;;;;;;;-0.24;72.82;95096.00;1620691;88;21091;-62
2021/10/11 04:40:57;;;;;;;56.88;34.45;;;;;;;-0.22;72.87;95095.05;1622142;88;21465;-61
2021/10/11 04:43:24;;;;;;;67.17;30.55;;;;;;;-0.17;72.76;95092.59;1623941;87;20996;-61
2021/10/11 04:45:51;;;;;;;56.60;32.93;;;;;;;-0.14;72.54;95093.20;1617810;87;21073;-62
2021/10/11 04:48:17;;;;;;;56.98;31.95;;;;;;;-0.16;72.57;95091.45;1626893;88;21021;-62
2021/10/11 04:50:44;;;;;;;72.05;40.80;;;;;;;-0.09;72.76;95099.63;1621048;87;21137;-65
2021/10/11 04:53:11;;;;;;;113.75;54.70;;;;;;;-0.02;72.64;95090.25;1621069;87;21061;-62
2021/10/11 04:55:37;;;;;;;49.90;28.57;;;;;;;0.05;72.52;95087.80;1616620;87;20977;-63
2021/10/11 04:58:04;;;;;;;51.20;28.12;;;;;;;0.15;72.44;95091.75;1625263;88;21564;-62
2021/10/11 05:00:30;;;;;;;60.88;30.52;;;;;;;0.18;72.26;95091.00;1622064;87;21044;-63
2021/10/11 05:02:57;;;;;;;61.77;32.33;;;;;;;0.15;72.14;95099.87;1617493;87;21173;-62
2021/10/11 05:05:24;;;;;;;67.30;31.75;;;;;;;0.06;71.96;95098.06;1621914;87;21553;-61
2021/10/11 05:07:51;;;;;;;75.00;40.83;;;;;;;-0.01;72.29;95097.41;1620545;88;21198;-63
2021/10/11 05:10:18;;;;;;;87.62;40.73;;;;;;;-0.05;72.42;95095.81;1623501;88;21510;-63
2021/10/11 05:12:44;;;;;;;77.22;42.33;;;;;;;0.04;72.89;95096.30;1625535;88;21123;-62
2021/10/11 05:15:11;;;;;;;90.75;44.25;;;;;;;0.21;73.01;95089.70;1620434;87;21094;-63
2021/10/11 05:17:41;;;;;;;92.55;49.65;;;;;;;0.34;72.47;95092.33;1620443;87;21565;-63
2021/10/11 05:20:10;;;;;;;79.22;39.60;;;;;;;0.36;72.27;95091.38;1641019;87;21479;-62
2021/10/11 05:22:40;;;;;;;65.60;35.08;;;;;;;0.35;72.40;95093.09;1650862;86;21002;-62
2021/10/11 05:25:08;;;;;;;84.97;38.75;;;;;;;0.38;72.48;95089.66;1657001;85;20967;-62
2021/10/11 05:27:36;;;;;;;77.37;35.23;;;;;;;0.41;72.56;95084.85;1669953;85;21191;-65
2021/10/11 05:30:04;;;;;;;71.45;38.38;;;;;;;0.50;72.54;95083.38;1632580;85;21019;-64
2021/10/11 05:32:33;;;;;;;83.30;39.30;;;;;;;0.54;72.34;95089.59;1616097;87;21044;-63
2021/10/11 05:35:00;;;;;;;86.60;41.05;;;;;;;0.52;72.32;95090.55;1637677;87;21053;-64
2021/10/11 05:37:29;;;;;;;75.40;39.98;;;;;;;0.53;72.30;95088.05;1646850;87;21125;-63
2021/10/11 05:39:56;;;;;;;89.67;40.88;;;;;;;0.57;72.38;95086.73;1625102;85;21170;-68
2021/10/11 05:42:23;;;;;;;62.50;32.75;;;;;;;0.62;72.38;95084.42;1632715;85;21131;-62
2021/10/11 05:44:51;;;;;;;75.50;36.95;;;;;;;0.67;72.45;95084.66;1655753;85;21609;-64
2021/10/11 05:47:18;;;;;;;132.15;62.60;;;;;;;0.66;72.62;95089.31;1620906;85;21195;-64
2021/10/11 05:49:44;;;;;;;97.00;47.00;;;;;;;0.76;72.84;95077.77;1637371;85;22301;-62
2021/10/11 05:52:11;;;;;;;95.92;47.60;;;;;;;0.89;72.70;95070.89;1634642;85;21078;-62
2021/10/11 05:54:38;;;;;;;117.95;53.83;;;;;;;1.01;72.55;95073.86;1642819;85;21200;-59
2021/10/11 05:57:05;;;;;;;119.80;57.03;;;;;;;1.15;72.32;95076.06;1635237;85;21078;-63
2021/10/11 05:59:32;;;;;;;113.40;59.45;;;;;;;1.27;72.37;95063.56;1637043;85;21087;-62
2021/10/11 06:01:58;;;;;;;105.45;49.53;;;;;;;1.51;72.12;95066.18;1633044;85;21090;-59
2021/10/11 06:04:25;;;;;;;87.78;46.85;;;;;;;1.71;71.74;95060.04;1636766;85;22311;-59
2021/10/11 06:06:52;;;;;;;126.12;57.15;;;;;;;1.94;71.42;95057.80;1633155;85;21146;-59
2021/10/11 06:09:19;;;;;;;104.45;52.80;;;;;;;2.22;70.87;95056.47;1635953;85;21457;-61
2021/10/11 06:11:46;;;;;;;86.72;44.05;;;;;;;2.38;70.15;95051.44;1652314;85;21681;-60
2021/10/11 06:14:14;;;;;;;73.30;37.63;;;;;;;2.43;69.50;95042.91;1628453;85;21035;-59
2021/10/11 06:16:42;;;;;;;58.15;33.28;;;;;;;2.45;69.14;95044.64;1645347;85;21615;-59
2021/10/11 06:19:08;;;;;;;73.17;35.92;;;;;;;2.44;68.93;95043.88;1620271;87;21141;-60
2021/10/11 06:21:35;;;;;;;77.75;42.45;;;;;;;2.48;68.88;95054.16;1590128;88;21103;-59
2021/10/11 06:24:05;;;;;;;80.90;43.45;;;;;;;2.55;68.77;95043.31;1580840;88;21130;-60
2021/10/11 06:26:31;;;;;;;72.97;40.40;;;;;;;2.58;68.77;95040.38;1579181;87;21158;-59
2021/10/11 06:28:58;;;;;;;66.75;37.42;;;;;;;2.66;68.78;95036.52;1607933;87;23165;-60
2021/10/11 06:31:25;;;;;;;84.95;44.70;;;;;;;2.77;68.62;95038.62;1603492;86;21074;-61
2021/10/11 06:33:52;;;;;;;70.67;38.02;;;;;;;2.86;68.56;95028.14;1602359;88;21108;-60
2021/10/11 06:36:19;;;;;;;80.22;40.33;;;;;;;3.00;68.28;95030.81;1609457;88;21086;-60
2021/10/11 06:38:46;;;;;;;69.17;39.38;;;;;;;3.11;67.97;95027.49;1611728;88;21102;-63
2021/10/11 06:41:13;;;;;;;69.90;37.42;;;;;;;3.19;67.83;95030.37;1594498;88;22013;-58
2021/10/11 06:43:40;;;;;;;61.40;32.20;;;;;;;3.26;67.81;95024.33;1644302;84;21540;-60
2021/10/11 06:46:07;;;;;;;54.77;31.55;;;;;;;3.36;67.67;95024.09;1636916;85;21076;-59
2021/10/11 06:48:33;;;;;;;73.00;35.25;;;;;;;3.45;67.61;95019.79;1639258;85;21158;-61
2021/10/11 06:51:01;;;;;;;66.40;32.15;;;;;;;3.54;67.46;95020.91;1635490;85;21552;-59
2021/10/11 06:53:29;;;;;;;69.37;32.03;;;;;;;3.66;67.38;95017.76;1639738;85;21172;-60
2021/10/11 06:55:55;;;;;;;51.80;26.70;;;;;;;3.79;66.99;95007.98;1633639;85;21463;-60
2021/10/11 06:58:22;;;;;;;47.75;26.93;;;;;;;3.98;66.59;95004.75;1637638;87;21081;-61
2021/10/11 07:00:51;;;;;;;51.92;27.25;;;;;;;4.22;66.23;94998.96;1633372;86;21057;-62
2021/10/11 07:03:23;;;;;;;44.08;24.05;;;;;;;4.43;65.39;94998.19;1638413;85;20974;-61
2021/10/11 07:05:47;;;;;;;51.28;26.07;;;;;;;4.57;64.68;95000.80;1637149;85;21233;-65
2021/10/11 07:08:14;;;;;;;37.48;21.17;;;;;;;4.71;64.24;94997.95;1645315;85;21132;-66
2021/10/11 07:10:41;;;;;;;31.17;17.30;;;;;;;4.85;63.59;94992.38;1628133;85;21094;-65
2021/10/11 07:13:08;;;;;;;30.30;17.70;;;;;;;4.95;63.04;94986.03;1627004;86;21534;-64
2021/10/11 07:15:36;;;;;;;26.97;14.50;;;;;;;5.01;63.01;94985.77;1634487;85;21086;-62
2021/10/11 07:18:03;;;;;;;28.77;14.70;;;;;;;5.07;62.62;94979.29;1632006;85;22282;-68
2021/10/11 07:20:29;;;;;;;26.48;13.58;;;;;;;5.13;62.00;94980.41;1636026;85;21071;-63
2021/10/11 07:22:56;;;;;;;25.50;14.18;;;;;;;5.21;61.46;94979.92;1633842;84;20989;-64
2021/10/11 07:25:23;;;;;;;30.12;16.67;;;;;;;5.34;61.10;94978.19;1631147;85;21077;-63
2021/10/11 07:27:50;;;;;;;29.37;15.70;;;;;;;5.52;60.93;94975.45;1629644;85;21125;-63
2021/10/11 07:30:17;;;;;;;32.45;15.80;;;;;;;5.72;60.58;94972.83;1635768;85;21931;-61
2021/10/11 07:32:46;;;;;;;34.78;16.12;;;;;;;5.85;60.05;94972.50;1630770;85;21676;-59
2021/10/11 07:35:13;;;;;;;31.00;15.60;;;;;;;6.00;59.41;94972.48;1634346;85;21059;-66
2021/10/11 07:37:40;;;;;;;34.10;16.90;;;;;;;6.16;58.93;94969.91;1637337;84;21137;-59
2021/10/11 07:40:07;;;;;;;30.17;14.50;;;;;;;6.29;58.50;94962.09;1628099;84;21550;-60
2021/10/11 07:42:35;;;;;;;32.75;15.20;;;;;;;6.47;57.96;94954.95;1633013;85;21169;-60
2021/10/11 07:45:02;;;;;;;30.65;16.20;;;;;;;6.56;57.69;94946.41;1636143;85;21060;-61
2021/10/11 07:47:30;;;;;;;34.48;16.05;;;;;;;6.62;57.47;94950.80;1631369;85;21006;-62
2021/10/11 07:49:56;;;;;;;36.73;16.27;;;;;;;6.66;57.42;94948.80;1642984;85;21069;-62
2021/10/11 07:52:23;;;;;;;28.90;15.75;;;;;;;6.75;57.14;94940.82;1628942;85;21094;-69
2021/10/11 07:54:50;;;;;;;27.87;17.12;;;;;;;6.88;57.00;94945.87;1638898;85;21734;-64
2021/10/11 07:57:17;;;;;;;29.37;15.65;;;;;;;7.09;56.67;94938.02;1639179;85;21636;-63
2021/10/11 07:59:44;;;;;;;29.48;16.52;;;;;;;7.33;55.98;94940.28;1637244;84;21029;-68
2021/10/11 08:02:11;;;;;;;27.77;16.07;;;;;;;7.47;55.45;94929.05;1638922;85;20994;-65
2021/10/11 08:04:38;;;;;;;29.60;16.90;;;;;;;7.60;55.06;94931.33;1640452;84;21295;-68
2021/10/11 08:07:05;;;;;;;31.68;17.20;;;;;;;7.69;54.99;94928.77;1645330;85;21149;-59
2021/10/11 08:09:32;;;;;;;28.73;15.63;;;;;;;7.83;54.98;94917.52;1640255;85;21072;-63
2021/10/11 08:11:59;;;;;;;27.42;15.32;;;;;;;7.97;54.16;94906.25;1641008;84;21062;-64
2021/10/11 08:14:26;;;;;;;29.82;17.82;;;;;;;8.12;53.78;94908.05;1651827;85;22018;-66
2021/10/11 08:16:53;;;;;;;28.35;17.20;;;;;;;8.30;53.16;94903.73;1632910;85;21596;-65
2021/10/11 08:19:21;;;;;;;16.90;11.28;;;;;;;8.43;52.32;94904.56;1628207;85;21637;-64
2021/10/11 08:21:48;;;;;;;23.22;14.13;;;;;;;8.58;51.23;94899.52;1639539;85;21463;-64
2021/10/11 08:24:15;;;;;;;21.52;12.05;;;;;;;8.74;51.06;94892.03;1641123;86;21022;-64
2021/10/11 08:26:42;;;;;;;20.75;11.93;;;;;;;8.90;50.71;94890.62;1636996;85;21007;-62
2021/10/11 08:29:09;;;;;;;33.50;12.98;;;;;;;9.01;49.40;94889.13;1641094;85;21217;-64
2021/10/11 08:31:36;;;;;;;13.83;10.15;;;;;;;9.17;48.67;94871.83;1643084;85;22342;-63
2021/10/11 08:34:04;;;;;;;18.25;10.13;;;;;;;9.39;47.35;94875.51;1647388;85;21066;-64
2021/10/11 08:36:33;;;;;;;13.18;9.80;;;;;;;9.55;46.23;94864.45;1642259;85;21062;-63
2021/10/11 08:39:00;;;;;;;17.85;9.20;;;;;;;9.71;46.09;94859.66;1626666;85;21415;-61
2021/10/11 08:41:28;;;;;;;15.25;10.68;;;;;;;9.92;45.68;94860.97;1634724;85;21084;-64
2021/10/11 08:43:55;;;;;;;24.18;11.22;;;;;;;10.17;45.61;94844.51;1626959;85;21115;-63
2021/10/11 08:46:23;;;;;;;23.42;11.88;;;;;;;10.38;44.68;94852.81;1640780;85;21084;-64
2021/10/11 08:48:50;;;;;;;24.45;14.00;;;;;;;10.52;43.90;94848.23;1636600;85;21588;-65
2021/10/11 08:51:17;;;;;;;30.75;14.78;;;;;;;10.67;43.69;94843.01;1630397;85;21137;-64
2021/10/11 08:53:44;;;;;;;25.55;14.03;;;;;;;10.88;43.46;94845.80;1635877;84;21158;-64
2021/10/11 08:56:12;;;;;;;22.73;12.15;;;;;;;11.10;42.71;94844.61;1636842;85;21120;-65
2021/10/11 08:58:48;;;;;;;24.47;10.98;;;;;;;11.25;42.19;94840.14;1641912;85;21065;-66
2021/10/11 09:01:15;;;;;;;25.75;11.50;;;;;;;11.42;41.55;94843.45;1611459;85;21057;-64
2021/10/11 09:03:42;;;;;;;26.27;10.88;;;;;;;11.73;41.61;94836.77;1637596;85;21086;-64
2021/10/11 09:06:11;;;;;;;18.85;10.30;;;;;;;12.07;40.95;94827.58;1641883;85;22015;-65
2021/10/11 09:08:39;;;;;;;16.30;10.58;;;;;;;12.37;40.71;94827.52;1645128;85;21172;-64
2021/10/11 09:11:12;;;;;;;23.95;12.37;;;;;;;12.65;39.89;94824.95;1639299;85;21632;-64
2021/10/11 09:13:45;;;;;;;19.90;10.72;;;;;;;12.90;40.81;94816.40;1610117;85;21130;-64
2021/10/11 09:18:57;;;;;;;13.80;7.60;;;;;;;13.53;40.20;94816.35;1639195;85;21484;-68
2021/10/11 09:21:31;;;;;;;12.50;6.92;;;;;;;13.92;39.60;94811.17;1636344;85;21180;-64
2021/10/11 09:24:16;;;;;;;15.95;9.53;;;;;;;14.25;38.44;94810.00;1630750;86;21046;-67
2021/10/11 09:26:45;;;;;;;20.23;10.10;;;;;;;14.43;37.88;94798.05;1631362;86;21585;-67
2021/10/11 09:29:14;;;;;;;27.20;12.58;;;;;;;14.53;37.68;94795.53;1635780;85;21620;-66
2021/10/11 09:31:45;;;;;;;24.63;9.35;;;;;;;14.65;37.33;94795.89;1645143;86;21309;-65
2021/10/11 09:34:19;;;;;;;15.30;8.38;;;;;;;14.81;36.92;94787.17;1636184;85;21501;-64
2021/10/11 09:36:59;;;;;;;12.55;7.92;;;;;;;15.01;36.61;94788.70;1639364;85;21053;-65
2021/10/11 09:39:27;;;;;;;8.43;6.22;;;;;;;15.29;36.31;94779.55;1626177;85;21074;-65
2021/10/11 09:41:55;;;;;;;11.43;7.42;;;;;;;15.83;35.14;94774.22;1622756;86;21113;-64
2021/10/11 09:44:22;;;;;;;10.40;5.92;;;;;;;16.35;33.99;94766.34;1645819;85;21072;-63
2021/10/11 09:46:56;;;;;;;10.23;6.00;;;;;;;16.88;33.36;94774.50;1640109;85;21898;-64
2021/10/11 09:49:18;;;;;;;32.50;7.70;;;;;;;17.46;32.61;94763.03;1632076;85;21081;-64
2021/10/11 09:51:47;;;;;;;14.07;5.30;;;;;;;18.08;33.00;94758.92;1630145;85;21090;-70
2021/10/11 09:54:14;;;;;;;10.68;6.65;;;;;;;18.72;32.19;94754.28;1627760;85;21018;-67
2021/10/11 09:56:43;;;;;;;26.45;8.03;;;;;;;19.30;31.76;94747.95;1597909;85;21155;-66
2021/10/11 09:59:10;;;;;;;27.05;7.50;;;;;;;19.88;30.65;94740.03;1634698;86;21094;-63
2021/10/11 10:01:42;;;;;;;20.05;6.95;;;;;;;20.41;29.58;94735.58;1640157;85;21104;-61
2021/10/11 10:04:17;;;;;;;13.15;5.85;;;;;;;21.00;29.41;94738.73;1642242;86;21129;-63
2021/10/11 10:06:46;;;;;;;93.20;55.00;;;;;;;21.66;29.19;94730.78;1613566;86;21123;-63
2021/10/11 10:09:13;;;;;;;51.37;33.00;;;;;;;22.20;27.10;94726.03;1633029;85;21640;-63
2021/10/11 10:11:40;;;;;;;123.55;81.63;;;;;;;22.41;27.26;94725.11;1646236;86;21125;-65
2021/10/11 10:14:20;;;;;;;93.55;60.10;;;;;;;22.63;26.44;94717.13;1634803;86;21094;-65
2021/10/11 10:16:49;;;;;;;46.65;32.40;;;;;;;22.83;26.20;94719.45;1617476;86;21018;-67
2021/10/11 10:19:16;;;;;;;39.53;21.90;;;;;;;23.10;25.13;94706.49;1632222;86;21105;-64
2021/10/11 10:21:44;;;;;;;53.83;31.17;;;;;;;23.29;25.69;94697.47;1638441;87;21050;-65
2021/10/11 10:24:24;;;;;;;36.20;21.97;;;;;;;23.56;25.94;94695.56;1634476;87;21164;-62
2021/10/11 10:27:04;;;;;;;253.18;151.78;;;;;;;23.68;25.32;94694.86;1624752;87;21093;-62
2021/10/11 10:29:47;;;;;;;119.22;71.82;;;;;;;23.55;24.97;94684.95;1623193;85;21580;-64
2021/10/11 10:32:18;;;;;;;111.45;64.05;;;;;;;23.42;24.97;94682.08;1614532;87;21073;-64
2021/10/11 10:34:46;;;;;;;51.00;32.35;;;;;;;23.34;24.51;94678.38;1615502;87;21061;-64
2021/10/11 10:37:14;;;;;;;24.87;14.55;;;;;;;23.23;24.94;94675.70;1643527;85;21061;-64
2021/10/11 10:39:49;;;;;;;26.40;15.45;;;;;;;23.14;24.86;94674.69;1643812;86;21033;-64
2021/10/11 10:42:27;;;;;;;14.50;8.70;;;;;;;23.15;24.73;94669.19;1639665;85;21550;-63
2021/10/11 10:44:56;;;;;;;18.87;9.53;;;;;;;23.32;24.76;94661.30;1618173;87;21914;-64
2021/10/11 10:47:36;;;;;;;38.88;23.22;;;;;;;23.48;25.59;94661.70;1625617;85;21341;-65
2021/10/11 10:50:11;;;;;;;15.65;8.85;;;;;;;23.53;24.79;94655.91;1628365;86;21146;-63
2021/10/11 10:52:38;;;;;;;18.07;8.68;;;;;;;23.39;25.01;94646.64;1631565;84;21684;-63
2021/10/11 10:55:06;;;;;;;10.28;6.05;;;;;;;23.20;25.04;94649.36;1633567;85;21051;-64
2021/10/11 10:57:33;;;;;;;76.22;34.33;;;;;;;23.01;25.64;94643.70;1634481;86;21807;-62
2021/10/11 11:00:13;;;;;;;111.40;46.30;;;;;;;22.72;24.99;94643.19;1636562;85;22130;-64
2021/10/11 11:02:38;;;;;;;132.10;62.55;;;;;;;22.27;25.56;94639.98;1632501;85;21053;-64
2021/10/11 11:05:06;;;;;;;140.47;63.55;;;;;;;21.85;25.88;94635.67;1634437;85;21058;-63
2021/10/11 11:07:34;;;;;;;223.78;107.12;;;;;;;21.51;26.49;94635.80;1610683;86;21098;-64
2021/10/11 11:10:05;;;;;;;118.15;51.77;;;;;;;21.26;27.10;94638.40;1640730;85;21517;-63
2021/10/11 11:12:34;;;;;;;54.25;25.52;;;;;;;21.00;27.48;94631.04;1632632;86;21967;-61
2021/10/11 11:15:10;;;;;;;40.08;16.70;;;;;;;20.83;27.71;94630.34;1634756;85;21105;-62
2021/10/11 11:17:40;;;;;;;12.20;7.00;;;;;;;20.71;28.07;94627.49;1629952;84;21079;-63
2021/10/11 11:20:18;;;;;;;14.90;5.90;;;;;;;20.48;29.04;94630.23;1624568;85;21573;-64
2021/10/11 11:22:45;;;;;;;14.63;5.15;;;;;;;20.21;29.58;94624.11;1628893;85;21089;-62
2021/10/11 11:25:12;;;;;;;9.80;5.40;;;;;;;20.03;29.96;94623.89;1637346;85;21510;-65
2021/10/11 11:27:42;;;;;;;17.98;8.20;;;;;;;19.90;30.31;94620.20;1632926;85;21173;-62